Time,TemperatureF,DewpointF,PressureIn,WindDirection,WindDirectionDegrees,WindSpeedMPH,WindSpeedGustMPH,Humidity,HourlyPrecipIn,Conditions,Clouds,dailyrainin,SoftwareType,DateUTC
2013-09-10 00:01:00,69.3,36.5,28.65,SE,135,0.0,0.0,30,0.00,RA,SKC,0.00,WeatherDisplay:10.37,2013-09-10 04:01:00,
2013-09-10 00:02:00,69.3,36.5,28.64,SE,135,0.0,0.0,30,0.00,RA,SKC,0.00,WeatherDisplay:10.37,2013-09-10 04:02:00,
2013-09-10 00:04:00,69.3,36.5,28.65,SE,135,0.0,0.0,30,0.00,RA,SKC,0.00,WeatherDisplay:10.37,2013-09-10 04:04:00,
2013-09-10 00:05:00,69.3,36.5,28.65,SE,135,0.0,0.0,30,0.00,RA,SKC,0.00,WeatherDisplay:10.37,2013-09-10 04:05:00,
2013-09-10 00:10:00,69.3,36.5,28.65,SE,135,0.0,0.0,30,0.00,CLR,SKC,0.00,WeatherDisplay:10.37,2013-09-10 04:10:00,
2013-09-10 00:13:00,69.3,36.5,28.65,SE,135,0.0,0.0,30,0.00,CLR,SKC,0.00,WeatherDisplay:10.37,2013-09-10 04:13:00,
2013-09-10 00:17:00,69.3,36.5,28.65,SE,135,0.0,0.0,30,0.00,CLR,SKC,0.00,WeatherDisplay:10.37,2013-09-10 04:17:00,
2013-09-10 00:22:00,69.3,36.5,28.65,SE,135,0.0,0.0,30,0.00,CLR,SKC,0.00,WeatherDisplay:10.37,2013-09-10 04:22:00,
2013-09-10 00:27:00,69.3,36.5,28.65,SE,135,0.0,0.0,30,0.00,CLR,SKC,0.00,WeatherDisplay:10.37,2013-09-10 04:27:00,
2013-09-10 00:32:00,69.3,36.5,28.65,SE,135,0.0,0.0,30,0.00,CLR,SKC,0.00,WeatherDisplay:10.37,2013-09-10 04:32:00,
2013-09-10 00:37:00,69.1,36.3,28.65,SE,135,0.0,0.0,30,0.00,CLR,SKC,0.00,WeatherDisplay:10.37,2013-09-10 04:37:00,
2013-09-10 00:42:00,69.1,36.3,28.64,SE,135,0.0,0.0,30,0.00,CLR,SKC,0.00,WeatherDisplay:10.37,2013-09-10 04:42:00,
2013-09-10 00:47:00,69.3,36.5,28.65,SE,135,0.0,0.0,30,0.00,CLR,SKC,0.00,WeatherDisplay:10.37,2013-09-10 04:47:00,
2013-09-10 00:52:00,69.1,36.3,28.65,SE,135,0.0,0.0,30,0.00,CLR,SKC,0.00,WeatherDisplay:10.37,2013-09-10 04:52:00,
2013-09-10 00:57:00,69.1,36.3,28.65,SE,135,0.0,0.0,30,0.00,CLR,SKC,0.00,WeatherDisplay:10.37,2013-09-10 04:57:00,
2013-09-10 01:02:00,69.1,36.3,28.65,SE,135,0.0,0.0,30,0.00,CLR,SKC,0.00,WeatherDisplay:10.37,2013-09-10 05:02:00,
2013-09-10 01:07:00,69.1,36.3,28.65,SE,135,0.0,0.0,30,0.00,CLR,SKC,0.00,WeatherDisplay:10.37,2013-09-10 05:07:00,
2013-09-10 01:12:00,68.9,36.2,28.65,SE,135,0.0,0.0,30,0.00,CLR,SKC,0.00,WeatherDisplay:10.37,2013-09-10 05:12:00,
2013-09-10 01:17:00,68.9,36.2,28.66,SE,135,0.0,0.0,30,0.00,CLR,SKC,0.00,WeatherDisplay:10.37,2013-09-10 05:17:00,
2013-09-10 01:22:00,68.9,36.2,28.65,SE,135,0.0,0.0,30,0.00,CLR,SKC,0.00,WeatherDisplay:10.37,2013-09-10 05:22:00,
2013-09-10 01:27:00,68.7,36.0,28.65,SE,135,0.0,0.0,30,0.00,CLR,SKC,0.00,WeatherDisplay:10.37,2013-09-10 05:27:00,
2013-09-10 01:32:00,68.7,36.0,28.65,SE,135,0.0,0.0,30,0.00,CLR,SKC,0.00,WeatherDisplay:10.37,2013-09-10 05:32:00,
2013-09-10 01:37:00,68.5,35.9,28.65,SE,135,0.0,0.0,30,0.00,CLR,SKC,0.00,WeatherDisplay:10.37,2013-09-10 05:37:00,
2013-09-10 01:42:00,68.5,35.9,28.65,SE,135,0.0,0.0,30,0.00,CLR,SKC,0.00,WeatherDisplay:10.37,2013-09-10 05:42:00,
2013-09-10 01:47:00,68.5,35.9,28.64,South,180,0.0,0.0,30,0.00,CLR,SKC,0.00,WeatherDisplay:10.37,2013-09-10 05:47:00,
2013-09-10 01:52:00,68.5,35.9,28.65,SE,135,0.0,0.0,30,0.00,CLR,SKC,0.00,WeatherDisplay:10.37,2013-09-10 05:52:00,
2013-09-10 01:57:00,68.7,36.0,28.65,South,180,0.0,0.0,30,0.00,CLR,SKC,0.00,WeatherDisplay:10.37,2013-09-10 05:57:00,
2013-09-10 02:02:00,68.9,36.2,28.65,South,180,0.0,0.0,30,0.00,CLR,SKC,0.00,WeatherDisplay:10.37,2013-09-10 06:02:00,
2013-09-10 02:07:00,68.9,36.2,28.65,South,180,0.0,0.0,30,0.00,CLR,SKC,0.00,WeatherDisplay:10.37,2013-09-10 06:07:00,
2013-09-10 02:12:00,69.1,36.3,28.65,South,180,1.2,0.0,30,0.00,CLR,SKC,0.00,WeatherDisplay:10.37,2013-09-10 06:12:00,
2013-09-10 02:17:00,68.9,36.2,28.65,South,180,1.2,0.0,30,0.00,CLR,SKC,0.00,WeatherDisplay:10.37,2013-09-10 06:17:00,
2013-09-10 02:22:00,69.1,36.3,28.65,South,180,0.0,0.0,30,0.00,CLR,SKC,0.00,WeatherDisplay:10.37,2013-09-10 06:22:00,
2013-09-10 02:27:00,69.1,36.3,28.65,SE,135,1.2,0.0,30,0.00,CLR,SKC,0.00,WeatherDisplay:10.37,2013-09-10 06:27:00,
2013-09-10 02:32:00,69.1,36.3,28.65,South,180,0.0,0.0,30,0.00,CLR,SKC,0.00,WeatherDisplay:10.37,2013-09-10 06:32:00,
2013-09-10 02:37:00,69.3,36.5,28.65,South,180,1.2,0.0,30,0.00,CLR,SKC,0.00,WeatherDisplay:10.37,2013-09-10 06:37:00,
2013-09-10 02:42:00,69.1,36.3,28.65,South,180,0.0,0.0,30,0.00,CLR,SKC,0.00,WeatherDisplay:10.37,2013-09-10 06:42:00,
2013-09-10 02:47:00,69.1,36.3,28.64,South,180,1.2,0.0,30,0.00,CLR,SKC,0.00,WeatherDisplay:10.37,2013-09-10 06:47:00,
2013-09-10 02:52:00,69.1,36.3,28.65,South,180,0.0,0.0,30,0.00,CLR,SKC,0.00,WeatherDisplay:10.37,2013-09-10 06:52:00,
2013-09-10 02:57:00,69.1,36.3,28.64,South,180,0.0,0.0,30,0.00,CLR,SKC,0.00,WeatherDisplay:10.37,2013-09-10 06:57:00,
2013-09-10 03:02:00,69.1,36.3,28.64,South,180,0.0,0.0,30,0.00,CLR,SKC,0.00,WeatherDisplay:10.37,2013-09-10 07:02:00,
2013-09-10 03:07:00,69.1,36.3,28.64,South,180,0.0,0.0,30,0.00,CLR,SKC,0.00,WeatherDisplay:10.37,2013-09-10 07:07:00,
2013-09-10 03:12:00,69.1,36.3,28.64,South,180,1.2,1.2,30,0.00,CLR,SKC,0.00,WeatherDisplay:10.37,2013-09-10 07:12:00,
2013-09-10 03:17:00,69.1,36.3,28.64,SE,135,0.0,0.0,30,0.00,CLR,SKC,0.00,WeatherDisplay:10.37,2013-09-10 07:17:00,
2013-09-10 03:22:00,69.1,36.3,28.64,South,180,3.5,3.5,30,0.00,CLR,SKC,0.00,WeatherDisplay:10.37,2013-09-10 07:22:00,
2013-09-10 03:27:00,69.1,36.3,28.65,South,180,1.2,0.0,30,0.00,CLR,SKC,0.00,WeatherDisplay:10.37,2013-09-10 07:27:00,
2013-09-10 03:32:00,68.9,36.2,28.65,SE,135,2.3,0.0,30,0.00,CLR,SKC,0.00,WeatherDisplay:10.37,2013-09-10 07:32:00,
2013-09-10 03:37:00,68.9,36.2,28.65,SE,135,1.2,0.0,30,0.00,CLR,SKC,0.00,WeatherDisplay:10.37,2013-09-10 07:37:00,
2013-09-10 03:42:00,68.9,36.2,28.64,South,180,0.0,0.0,30,0.00,CLR,SKC,0.00,WeatherDisplay:10.37,2013-09-10 07:42:00,
2013-09-10 03:47:00,68.9,36.2,28.65,South,180,2.3,0.0,30,0.00,CLR,SKC,0.00,WeatherDisplay:10.37,2013-09-10 07:47:00,
2013-09-10 03:52:00,68.9,36.2,28.65,South,180,3.5,0.0,30,0.00,CLR,SKC,0.00,WeatherDisplay:10.37,2013-09-10 07:52:00,
2013-09-10 03:57:00,68.9,36.2,28.65,SE,135,0.0,0.0,30,0.00,CLR,SKC,0.00,WeatherDisplay:10.37,2013-09-10 07:57:00,
2013-09-10 04:02:00,68.9,36.2,28.65,South,180,0.0,0.0,30,0.00,CLR,SKC,0.00,WeatherDisplay:10.37,2013-09-10 08:02:00,
2013-09-10 04:07:00,68.9,36.2,28.65,South,180,0.0,0.0,30,0.00,CLR,SKC,0.00,WeatherDisplay:10.37,2013-09-10 08:07:00,
2013-09-10 04:12:00,68.9,36.2,28.66,South,180,0.0,0.0,30,0.00,CLR,SKC,0.00,WeatherDisplay:10.37,2013-09-10 08:12:00,
2013-09-10 04:17:00,68.9,36.2,28.66,South,180,0.0,0.0,30,0.00,CLR,SKC,0.00,WeatherDisplay:10.37,2013-09-10 08:17:00,
2013-09-10 04:22:00,68.9,36.2,28.65,SSE,158,0.0,0.0,30,0.00,CLR,SKC,0.00,WeatherDisplay:10.37,2013-09-10 08:22:00,
2013-09-10 04:27:00,68.9,36.2,28.65,South,180,2.3,0.0,30,0.00,CLR,SKC,0.00,WeatherDisplay:10.37,2013-09-10 08:27:00,
2013-09-10 04:32:00,68.7,36.0,28.66,South,180,0.0,0.0,30,0.00,CLR,SKC,0.00,WeatherDisplay:10.37,2013-09-10 08:32:00,
2013-09-10 04:37:00,68.7,36.0,28.66,South,180,1.2,0.0,30,0.00,CLR,SKC,0.00,WeatherDisplay:10.37,2013-09-10 08:37:00,
2013-09-10 04:42:00,68.7,36.0,28.66,SE,135,0.0,0.0,30,0.00,CLR,SKC,0.00,WeatherDisplay:10.37,2013-09-10 08:42:00,
2013-09-10 04:47:00,68.7,36.0,28.66,South,180,0.0,0.7,30,0.00,CLR,SKC,0.00,WeatherDisplay:10.37,2013-09-10 08:47:00,
2013-09-10 04:52:00,68.7,36.0,28.66,South,180,0.0,0.0,30,0.00,CLR,SKC,0.00,WeatherDisplay:10.37,2013-09-10 08:52:00,
2013-09-10 04:57:00,68.7,36.0,28.66,South,180,0.0,0.0,30,0.00,CLR,SKC,0.00,WeatherDisplay:10.37,2013-09-10 08:57:00,
2013-09-10 05:02:00,68.7,36.0,28.66,SE,135,0.0,0.0,30,0.00,CLR,SKC,0.00,WeatherDisplay:10.37,2013-09-10 09:02:00,
2013-09-10 05:07:00,68.7,36.0,28.67,SE,135,0.0,0.0,30,0.00,CLR,SKC,0.00,WeatherDisplay:10.37,2013-09-10 09:07:00,
2013-09-10 05:12:00,68.5,35.9,28.67,South,180,0.0,0.0,30,0.00,CLR,SKC,0.00,WeatherDisplay:10.37,2013-09-10 09:12:00,
2013-09-10 05:17:00,68.5,35.9,28.67,South,180,0.0,0.0,30,0.00,CLR,SKC,0.00,WeatherDisplay:10.37,2013-09-10 09:17:00,
2013-09-10 05:22:00,68.5,35.9,28.67,South,180,3.5,0.0,30,0.00,CLR,SKC,0.00,WeatherDisplay:10.37,2013-09-10 09:22:00,
2013-09-10 05:27:00,68.5,35.9,28.67,SE,135,1.2,0.0,30,0.00,CLR,SKC,0.00,WeatherDisplay:10.37,2013-09-10 09:27:00,
2013-09-10 05:32:00,68.5,35.9,28.67,SE,135,0.0,0.0,30,0.00,CLR,SKC,0.00,WeatherDisplay:10.37,2013-09-10 09:32:00,
2013-09-10 05:37:00,68.5,35.9,28.67,SE,135,0.0,0.0,30,0.00,CLR,SKC,0.00,WeatherDisplay:10.37,2013-09-10 09:37:00,
2013-09-10 05:42:00,68.5,35.9,28.67,South,180,0.0,0.0,30,0.00,CLR,SKC,0.00,WeatherDisplay:10.37,2013-09-10 09:42:00,
2013-09-10 05:47:00,68.5,35.9,28.68,South,180,0.0,0.0,30,0.00,CLR,SKC,0.00,WeatherDisplay:10.37,2013-09-10 09:47:00,
2013-09-10 05:52:00,68.5,35.9,28.68,South,180,0.0,0.0,30,0.00,CLR,SKC,0.00,WeatherDisplay:10.37,2013-09-10 09:52:00,
2013-09-10 05:57:00,68.5,35.9,28.68,South,180,0.0,0.0,30,0.00,CLR,SKC,0.00,WeatherDisplay:10.37,2013-09-10 09:57:00,
2013-09-10 06:02:00,68.5,35.9,28.67,SE,135,0.0,0.0,30,0.00,CLR,SKC,0.00,WeatherDisplay:10.37,2013-09-10 10:02:00,
2013-09-10 06:07:00,68.5,35.9,28.68,SE,135,0.0,0.0,30,0.00,CLR,SKC,0.00,WeatherDisplay:10.37,2013-09-10 10:07:00,
2013-09-10 06:12:00,68.5,35.9,28.68,South,180,0.0,0.0,30,0.00,CLR,SKC,0.00,WeatherDisplay:10.37,2013-09-10 10:12:00,
2013-09-10 06:17:00,68.5,35.9,28.68,South,180,0.0,0.0,30,0.00,CLR,SKC,0.00,WeatherDisplay:10.37,2013-09-10 10:17:00,
2013-09-10 06:22:00,68.5,35.9,28.68,South,180,0.0,0.0,30,0.00,CLR,SKC,0.00,WeatherDisplay:10.37,2013-09-10 10:22:00,
2013-09-10 06:27:00,68.5,35.9,28.68,South,180,0.0,0.0,30,0.00,CLR,SKC,0.00,WeatherDisplay:10.37,2013-09-10 10:27:00,
2013-09-10 06:32:00,68.5,35.9,28.69,SE,135,2.3,0.0,30,0.00,CLR,SKC,0.00,WeatherDisplay:10.37,2013-09-10 10:32:00,
2013-09-10 06:37:00,68.5,35.9,28.68,South,180,3.5,0.0,30,0.00,CLR,SKC,0.00,WeatherDisplay:10.37,2013-09-10 10:37:00,
2013-09-10 06:42:00,68.5,35.9,28.69,South,180,0.0,0.0,30,0.00,CLR,SKC,0.00,WeatherDisplay:10.37,2013-09-10 10:42:00,
2013-09-10 06:47:00,68.5,35.9,28.69,South,180,0.0,0.0,30,0.00,CLR,SKC,0.00,WeatherDisplay:10.37,2013-09-10 10:47:00,
2013-09-10 06:52:00,68.5,35.9,28.69,South,180,4.6,0.0,30,0.00,CLR,SKC,0.00,WeatherDisplay:10.37,2013-09-10 10:52:00,
2013-09-10 06:57:00,68.5,35.9,28.69,South,180,3.5,0.0,30,0.00,CLR,SKC,0.00,WeatherDisplay:10.37,2013-09-10 10:57:00,
2013-09-10 07:02:00,68.5,35.9,28.69,South,180,0.0,0.0,30,0.00,CLR,SKC,0.00,WeatherDisplay:10.37,2013-09-10 11:02:00,
2013-09-10 07:07:00,68.7,36.0,28.69,SSE,158,0.0,1.6,30,0.00,CLR,SKC,0.00,WeatherDisplay:10.37,2013-09-10 11:07:00,
2013-09-10 07:12:00,68.7,36.0,28.69,South,180,1.2,0.0,30,0.00,CLR,SKC,0.00,WeatherDisplay:10.37,2013-09-10 11:12:00,
2013-09-10 07:17:00,68.7,36.0,28.69,South,180,3.5,3.5,30,0.00,CLR,SKC,0.00,WeatherDisplay:10.37,2013-09-10 11:17:00,
2013-09-10 07:22:00,68.7,36.0,28.69,East,90,5.4,5.4,30,0.00,CLR,SKC,0.00,WeatherDisplay:10.37,2013-09-10 11:22:00,
2013-09-10 07:27:00,68.9,36.2,28.69,SE,135,3.5,0.0,30,0.00,CLR,SKC,0.00,WeatherDisplay:10.37,2013-09-10 11:27:00,
2013-09-10 07:32:00,68.9,36.2,28.69,South,180,0.0,0.0,30,0.00,CLR,SKC,0.00,WeatherDisplay:10.37,2013-09-10 11:32:00,
2013-09-10 07:37:00,69.1,36.3,28.69,South,180,5.8,0.0,30,0.00,CLR,SKC,0.00,WeatherDisplay:10.37,2013-09-10 11:37:00,
2013-09-10 07:42:00,69.1,36.3,28.68,SSE,158,3.5,0.0,30,0.00,CLR,SKC,0.00,WeatherDisplay:10.37,2013-09-10 11:42:00,
2013-09-10 07:47:00,69.3,36.5,28.68,South,180,3.5,3.5,30,0.00,CLR,SKC,0.00,WeatherDisplay:10.37,2013-09-10 11:47:00,
2013-09-10 07:52:00,69.3,36.5,28.69,NW,315,0.0,0.0,30,0.00,CLR,SKC,0.00,WeatherDisplay:10.37,2013-09-10 11:52:00,
2013-09-10 07:57:00,69.4,36.6,28.69,South,180,3.5,0.0,30,0.00,CLR,SKC,0.00,WeatherDisplay:10.37,2013-09-10 11:57:00,
2013-09-10 08:02:00,69.4,36.6,28.69,South,180,1.2,0.0,30,0.00,CLR,SKC,0.00,WeatherDisplay:10.37,2013-09-10 12:02:00,
2013-09-10 08:07:00,69.6,36.8,28.70,SSE,158,1.2,0.0,30,0.00,CLR,SKC,0.00,WeatherDisplay:10.37,2013-09-10 12:07:00,
2013-09-10 08:12:00,69.8,36.9,28.70,SE,135,3.5,0.0,30,0.00,CLR,SKC,0.00,WeatherDisplay:10.37,2013-09-10 12:12:00,
2013-09-10 08:17:00,70.2,37.3,28.70,South,180,0.0,0.0,30,0.00,CLR,SKC,0.00,WeatherDisplay:10.37,2013-09-10 12:17:00,
2013-09-10 08:22:00,70.3,37.4,28.70,North,8,1.2,0.0,30,0.00,CLR,SKC,0.00,WeatherDisplay:10.37,2013-09-10 12:22:00,
2013-09-10 08:27:00,70.3,37.4,28.70,North,6,4.6,0.0,30,0.00,CLR,SKC,0.00,WeatherDisplay:10.37,2013-09-10 12:27:00,
2013-09-10 08:32:00,70.7,37.7,28.70,SE,135,3.5,0.0,30,0.00,CLR,SKC,0.00,WeatherDisplay:10.37,2013-09-10 12:32:00,
2013-09-10 08:37:00,71.1,38.0,28.70,South,180,0.0,0.0,30,0.00,CLR,SKC,0.00,WeatherDisplay:10.37,2013-09-10 12:37:00,
2013-09-10 08:42:00,71.2,38.2,28.70,East,90,10.4,0.0,30,0.00,CLR,SKC,0.00,WeatherDisplay:10.37,2013-09-10 12:42:00,
2013-09-10 08:47:00,71.6,38.5,28.70,South,180,2.3,0.0,30,0.00,CLR,SKC,0.00,WeatherDisplay:10.37,2013-09-10 12:47:00,
2013-09-10 08:52:00,71.8,38.7,28.70,SE,135,3.5,3.5,30,0.00,CLR,SKC,0.00,WeatherDisplay:10.37,2013-09-10 12:52:00,
2013-09-10 08:57:00,71.8,38.7,28.70,South,180,9.2,9.2,30,0.00,CLR,SKC,0.00,WeatherDisplay:10.37,2013-09-10 12:57:00,
2013-09-10 09:02:00,71.8,38.7,28.71,East,90,2.3,2.3,30,0.00,CLR,SKC,0.00,WeatherDisplay:10.37,2013-09-10 13:02:00,
2013-09-10 09:07:00,72.3,39.1,28.71,ENE,68,2.3,2.3,30,0.00,CLR,SKC,0.00,WeatherDisplay:10.37,2013-09-10 13:07:00,
2013-09-10 09:12:00,72.3,39.1,28.70,South,180,4.6,0.0,30,0.00,CLR,SKC,0.00,WeatherDisplay:10.37,2013-09-10 13:12:00,
2013-09-10 09:17:00,72.7,39.4,28.71,East,90,2.3,0.0,30,0.00,CLR,SKC,0.00,WeatherDisplay:10.37,2013-09-10 13:17:00,
2013-09-10 09:22:00,72.9,39.6,28.71,SE,135,1.2,0.0,30,0.00,CLR,SKC,0.00,WeatherDisplay:10.37,2013-09-10 13:22:00,
2013-09-10 09:27:00,73.0,39.8,28.72,SE,135,2.3,2.3,30,0.00,CLR,SKC,0.00,WeatherDisplay:10.37,2013-09-10 13:27:00,
2013-09-10 09:32:00,73.0,39.8,28.72,East,90,2.3,2.3,30,0.00,CLR,SKC,0.00,WeatherDisplay:10.37,2013-09-10 13:32:00,
2013-09-10 09:37:00,73.2,39.9,28.72,South,180,2.3,2.3,30,0.00,CLR,SKC,0.00,WeatherDisplay:10.37,2013-09-10 13:37:00,
2013-09-10 09:42:00,73.0,39.8,28.72,South,180,5.8,5.8,30,0.00,CLR,SKC,0.00,WeatherDisplay:10.37,2013-09-10 13:42:00,
2013-09-10 09:47:00,73.0,39.8,28.72,South,180,3.5,3.5,30,0.00,CLR,SKC,0.00,WeatherDisplay:10.37,2013-09-10 13:47:00,
2013-09-10 09:52:00,73.8,40.4,28.72,South,180,1.2,0.0,30,0.00,CLR,SKC,0.00,WeatherDisplay:10.37,2013-09-10 13:52:00,
2013-09-10 09:57:00,74.5,41.0,28.72,SE,135,5.8,5.8,30,0.00,CLR,SKC,0.00,WeatherDisplay:10.37,2013-09-10 13:57:00,
2013-09-10 10:02:00,74.8,41.3,28.72,South,180,4.6,4.6,30,0.00,CLR,SKC,0.00,WeatherDisplay:10.37,2013-09-10 14:02:00,
2013-09-10 10:07:00,74.8,41.3,28.72,South,180,4.6,4.6,30,0.00,CLR,SKC,0.00,WeatherDisplay:10.37,2013-09-10 14:07:00,
2013-09-10 10:12:00,76.1,42.4,28.72,South,180,9.2,9.2,30,0.00,CLR,SKC,0.00,WeatherDisplay:10.37,2013-09-10 14:12:00,
2013-09-10 10:17:00,76.8,43.0,28.72,SE,135,4.6,4.6,30,0.00,CLR,SKC,0.00,WeatherDisplay:10.37,2013-09-10 14:17:00,
2013-09-10 10:22:00,77.4,43.5,28.72,South,180,5.8,0.0,30,0.00,CLR,SKC,0.00,WeatherDisplay:10.37,2013-09-10 14:22:00,
2013-09-10 10:27:00,77.7,43.8,28.72,SE,135,8.1,8.1,30,0.00,CLR,SKC,0.00,WeatherDisplay:10.37,2013-09-10 14:27:00,
2013-09-10 10:32:00,78.3,44.3,28.72,South,180,5.8,5.8,30,0.00,CLR,SKC,0.00,WeatherDisplay:10.37,2013-09-10 14:32:00,
2013-09-10 10:38:00,78.8,44.7,28.72,SE,135,3.5,3.5,30,0.00,CLR,SKC,0.00,WeatherDisplay:10.37,2013-09-10 14:38:00,
2013-09-10 10:43:00,79.5,45.4,28.72,NE,45,5.8,0.0,30,0.00,CLR,SKC,0.00,WeatherDisplay:10.37,2013-09-10 14:43:00,
2013-09-10 10:48:00,80.6,46.3,28.72,SE,135,5.8,5.8,30,0.00,CLR,SKC,0.00,WeatherDisplay:10.37,2013-09-10 14:48:00,
2013-09-10 10:53:00,81.5,47.1,28.72,SE,135,3.5,3.5,30,0.00,CLR,SKC,0.00,WeatherDisplay:10.37,2013-09-10 14:53:00,
2013-09-10 10:58:00,81.9,47.4,28.72,SE,135,6.9,6.9,30,0.00,CLR,SKC,0.00,WeatherDisplay:10.37,2013-09-10 14:58:00,
2013-09-10 11:03:00,81.9,47.4,28.72,South,180,6.9,6.9,30,0.00,CLR,SKC,0.00,WeatherDisplay:10.37,2013-09-10 15:03:00,
2013-09-10 11:08:00,82.9,48.3,28.72,South,180,6.9,6.9,30,0.00,CLR,SKC,0.00,WeatherDisplay:10.37,2013-09-10 15:08:00,
2013-09-10 11:13:00,83.8,49.1,28.72,South,180,1.2,0.0,30,0.00,CLR,SKC,0.00,WeatherDisplay:10.37,2013-09-10 15:13:00,
2013-09-10 11:18:00,84.7,49.9,28.72,South,180,3.5,3.5,30,0.00,CLR,SKC,0.00,WeatherDisplay:10.37,2013-09-10 15:18:00,
2013-09-10 11:23:00,84.7,49.9,28.72,SSE,158,5.8,5.8,30,0.00,CLR,SKC,0.00,WeatherDisplay:10.37,2013-09-10 15:23:00,
2013-09-10 11:28:00,84.9,50.0,28.72,SSE,158,6.9,6.9,30,0.00,CLR,SKC,0.00,WeatherDisplay:10.37,2013-09-10 15:28:00,
2013-09-10 11:33:00,85.5,50.5,28.72,South,180,3.5,3.5,30,0.00,CLR,SKC,0.00,WeatherDisplay:10.37,2013-09-10 15:33:00,
2013-09-10 11:38:00,85.6,50.6,28.71,South,180,3.5,0.0,30,0.00,CLR,SKC,0.00,WeatherDisplay:10.37,2013-09-10 15:38:00,
2013-09-10 11:43:00,86.0,51.0,28.71,South,180,3.5,3.5,30,0.00,CLR,SKC,0.00,WeatherDisplay:10.37,2013-09-10 15:43:00,
2013-09-10 11:48:00,86.7,51.6,28.71,South,180,2.3,2.3,30,0.00,CLR,SKC,0.00,WeatherDisplay:10.37,2013-09-10 15:48:00,
2013-09-10 11:53:00,86.4,51.3,28.72,SE,135,10.4,10.4,30,0.00,CLR,SKC,0.00,WeatherDisplay:10.37,2013-09-10 15:53:00,
2013-09-10 11:58:00,86.4,51.3,28.71,South,180,5.8,5.8,30,0.00,CLR,SKC,0.00,WeatherDisplay:10.37,2013-09-10 15:58:00,
2013-09-10 12:03:00,86.5,51.4,28.71,NW,315,5.8,5.8,30,0.00,CLR,SKC,0.00,WeatherDisplay:10.37,2013-09-10 16:03:00,
2013-09-10 12:08:00,87.4,52.2,28.71,South,180,12.7,12.7,30,0.00,CLR,SKC,0.00,WeatherDisplay:10.37,2013-09-10 16:08:00,
2013-09-10 12:13:00,87.8,52.5,28.71,SE,135,5.8,5.8,30,0.00,CLR,SKC,0.00,WeatherDisplay:10.37,2013-09-10 16:13:00,
2013-09-10 12:18:00,88.0,52.7,28.71,ESE,112,3.5,3.8,30,0.00,CLR,SKC,0.00,WeatherDisplay:10.37,2013-09-10 16:18:00,
2013-09-10 12:23:00,88.2,52.8,28.71,East,90,4.6,4.6,30,0.00,CLR,SKC,0.00,WeatherDisplay:10.37,2013-09-10 16:23:00,
2013-09-10 12:28:00,88.2,52.8,28.70,South,180,8.1,8.1,30,0.00,CLR,SKC,0.00,WeatherDisplay:10.37,2013-09-10 16:28:00,
2013-09-10 12:33:00,88.7,53.3,28.70,South,180,5.8,5.8,30,0.00,CLR,SKC,0.00,WeatherDisplay:10.37,2013-09-10 16:33:00,
2013-09-10 12:38:00,88.9,53.4,28.70,SE,135,4.6,4.6,30,0.00,CLR,SKC,0.00,WeatherDisplay:10.37,2013-09-10 16:38:00,
2013-09-10 12:43:00,88.5,53.1,28.70,SE,135,10.4,10.4,30,0.00,CLR,SKC,0.00,WeatherDisplay:10.37,2013-09-10 16:43:00,
2013-09-10 12:48:00,88.7,53.3,28.70,South,180,10.4,10.4,30,0.00,CLR,SKC,0.00,WeatherDisplay:10.37,2013-09-10 16:48:00,
2013-09-10 12:53:00,88.9,53.4,28.70,South,180,3.5,3.5,30,0.00,CLR,SKC,0.00,WeatherDisplay:10.37,2013-09-10 16:53:00,
2013-09-10 12:58:00,89.4,53.9,28.70,SE,135,8.1,8.1,30,0.00,CLR,SKC,0.00,WeatherDisplay:10.37,2013-09-10 16:58:00,
2013-09-10 13:03:00,89.2,53.7,28.69,South,180,8.1,8.1,30,0.00,CLR,SKC,0.00,WeatherDisplay:10.37,2013-09-10 17:03:00,
2013-09-10 13:08:00,90.0,54.4,28.69,SE,135,8.1,8.1,30,0.00,CLR,SKC,0.00,WeatherDisplay:10.37,2013-09-10 17:08:00,
2013-09-10 13:13:00,90.3,54.7,28.70,East,90,2.3,2.3,30,0.00,CLR,SKC,0.00,WeatherDisplay:10.37,2013-09-10 17:13:00,
2013-09-10 13:18:00,90.7,55.0,28.70,North,8,3.5,3.5,30,0.00,CLR,SKC,0.00,WeatherDisplay:10.37,2013-09-10 17:18:00,
2013-09-10 13:23:00,90.1,54.5,28.70,South,180,5.8,5.8,30,0.00,CLR,SKC,0.00,WeatherDisplay:10.37,2013-09-10 17:23:00,
2013-09-10 13:28:00,90.0,54.4,28.70,SE,135,6.0,6.0,30,0.00,CLR,SKC,0.00,WeatherDisplay:10.37,2013-09-10 17:28:00,
2013-09-10 13:33:00,88.5,53.1,28.70,South,180,6.9,6.9,30,0.01,RA,SKC,0.01,WeatherDisplay:10.37,2013-09-10 17:33:00,
2013-09-10 13:38:00,88.3,53.0,28.70,South,180,9.2,9.2,30,0.01,RA,SKC,0.01,WeatherDisplay:10.37,2013-09-10 17:38:00,
2013-09-10 13:43:00,88.9,53.4,28.69,SE,135,8.1,8.1,30,0.01,,SKC,0.01,WeatherDisplay:10.37,2013-09-10 17:43:00,
2013-09-10 13:48:00,89.1,55.4,28.69,SE,135,5.8,5.8,32,0.01,CLR,SKC,0.01,WeatherDisplay:10.37,2013-09-10 17:48:00,
2013-09-10 13:53:00,89.4,59.0,28.69,South,180,2.3,2.3,36,0.01,CLR,SKC,0.01,WeatherDisplay:10.37,2013-09-10 17:53:00,
2013-09-10 13:58:00,90.0,61.7,28.69,South,180,4.6,0.0,39,0.01,CLR,SKC,0.01,WeatherDisplay:10.37,2013-09-10 17:58:00,
2013-09-10 14:03:00,90.3,62.0,28.70,SE,135,3.5,3.5,39,0.01,CLR,SKC,0.01,WeatherDisplay:10.37,2013-09-10 18:03:00,
2013-09-10 14:08:00,90.3,62.0,28.70,SE,135,3.5,3.5,39,0.01,CLR,SKC,0.01,WeatherDisplay:10.37,2013-09-10 18:08:00,
2013-09-10 14:13:00,91.4,65.8,28.69,South,180,6.9,6.9,43,0.01,CLR,SKC,0.01,WeatherDisplay:10.37,2013-09-10 18:13:00,
2013-09-10 14:18:00,90.9,68.5,28.69,South,180,5.8,5.8,48,0.01,CLR,SKC,0.01,WeatherDisplay:10.37,2013-09-10 18:18:00,
2013-09-10 14:23:00,90.7,70.1,28.69,SE,135,3.5,3.5,51,0.01,CLR,SKC,0.01,WeatherDisplay:10.37,2013-09-10 18:23:00,
2013-09-10 14:28:00,89.8,71.5,28.69,North,8,3.5,3.5,55,0.01,CLR,SKC,0.01,WeatherDisplay:10.37,2013-09-10 18:28:00,
2013-09-10 14:33:00,89.4,72.2,28.68,ESE,112,6.9,6.9,57,0.00,CLR,SKC,0.01,WeatherDisplay:10.37,2013-09-10 18:33:00,
2013-09-10 14:38:00,89.1,73.4,28.68,SE,135,5.8,5.8,60,0.00,CLR,SKC,0.01,WeatherDisplay:10.37,2013-09-10 18:38:00,
2013-09-10 14:43:00,88.7,74.5,28.68,SE,135,4.6,4.6,63,0.00,CLR,SKC,0.01,WeatherDisplay:10.37,2013-09-10 18:43:00,
2013-09-10 14:48:00,88.3,75.1,28.68,South,180,6.9,6.9,65,0.00,CLR,SKC,0.01,WeatherDisplay:10.37,2013-09-10 18:48:00,
2013-09-10 14:53:00,88.0,75.6,28.68,South,180,4.6,4.6,67,0.00,CLR,SKC,0.01,WeatherDisplay:10.37,2013-09-10 18:53:00,
2013-09-10 14:58:00,88.0,75.6,28.68,SE,135,8.1,8.1,67,0.00,CLR,SKC,0.01,WeatherDisplay:10.37,2013-09-10 18:58:00,
2013-09-10 15:03:00,88.0,76.1,28.68,NW,315,2.3,2.3,68,0.00,CLR,SKC,0.01,WeatherDisplay:10.37,2013-09-10 19:03:00,
2013-09-10 15:08:00,88.3,76.4,28.68,NW,315,8.1,8.1,68,0.00,CLR,SKC,0.01,WeatherDisplay:10.37,2013-09-10 19:08:00,
2013-09-10 15:13:00,88.5,77.0,28.68,NW,315,3.5,3.5,69,0.00,CLR,SKC,0.01,WeatherDisplay:10.37,2013-09-10 19:13:00,
2013-09-10 15:18:00,88.7,77.7,28.68,North,1,3.5,3.5,70,0.00,CLR,SKC,0.01,WeatherDisplay:10.37,2013-09-10 19:18:00,
2013-09-10 15:23:00,88.7,77.2,28.68,SE,135,9.2,9.2,69,0.00,CLR,SKC,0.01,WeatherDisplay:10.37,2013-09-10 19:23:00,
2013-09-10 15:28:00,88.3,77.7,28.68,South,180,5.8,5.8,71,0.00,CLR,SKC,0.01,WeatherDisplay:10.37,2013-09-10 19:28:00,
2013-09-10 15:33:00,88.3,78.2,28.68,South,180,4.6,4.6,72,0.00,CLR,SKC,0.01,WeatherDisplay:10.37,2013-09-10 19:33:00,
2013-09-10 15:38:00,88.3,79.0,28.68,South,180,2.3,2.3,74,0.00,CLR,SKC,0.01,WeatherDisplay:10.37,2013-09-10 19:38:00,
2013-09-10 15:43:00,88.5,78.8,28.68,South,180,3.5,0.0,73,0.00,CLR,SKC,0.01,WeatherDisplay:10.37,2013-09-10 19:43:00,
2013-09-10 15:48:00,88.5,78.8,28.68,South,180,0.0,0.0,73,0.00,CLR,SKC,0.01,WeatherDisplay:10.37,2013-09-10 19:48:00,
2013-09-10 15:53:00,88.3,79.0,28.68,SSE,158,8.1,8.1,74,0.00,CLR,SKC,0.01,WeatherDisplay:10.37,2013-09-10 19:53:00,
2013-09-10 15:58:00,88.0,79.1,28.67,South,180,6.9,6.9,75,0.00,CLR,SKC,0.01,WeatherDisplay:10.37,2013-09-10 19:58:00,
2013-09-10 16:03:00,88.0,79.5,28.67,NW,315,3.5,3.5,76,0.00,CLR,SKC,0.01,WeatherDisplay:10.37,2013-09-10 20:03:00,
2013-09-10 16:08:00,88.0,79.5,28.67,South,180,3.5,3.5,76,0.00,CLR,SKC,0.01,WeatherDisplay:10.37,2013-09-10 20:08:00,
2013-09-10 16:13:00,88.2,80.0,28.67,South,180,5.8,5.8,77,0.00,CLR,SKC,0.01,WeatherDisplay:10.37,2013-09-10 20:13:00,
2013-09-10 16:18:00,88.0,79.5,28.67,SSE,158,6.9,6.9,76,0.00,CLR,SKC,0.01,WeatherDisplay:10.37,2013-09-10 20:18:00,
2013-09-10 16:23:00,88.0,79.5,28.67,South,180,5.8,5.8,76,0.00,CLR,SKC,0.01,WeatherDisplay:10.37,2013-09-10 20:23:00,
2013-09-10 16:28:00,87.8,79.7,28.67,South,180,5.8,5.8,77,0.00,CLR,SKC,0.01,WeatherDisplay:10.37,2013-09-10 20:28:00,
2013-09-10 16:33:00,87.8,79.7,28.67,North,0,2.3,0.0,77,0.00,CLR,SKC,0.01,WeatherDisplay:10.37,2013-09-10 20:33:00,
2013-09-10 16:38:00,88.0,79.9,28.67,SE,135,1.2,0.0,77,0.00,CLR,SKC,0.01,WeatherDisplay:10.37,2013-09-10 20:38:00,
2013-09-10 16:43:00,88.2,80.4,28.67,SE,135,1.2,0.0,78,0.00,CLR,SKC,0.01,WeatherDisplay:10.37,2013-09-10 20:43:00,
2013-09-10 16:48:00,88.2,80.0,28.67,South,180,5.8,5.8,77,0.00,CLR,SKC,0.01,WeatherDisplay:10.37,2013-09-10 20:48:00,
2013-09-10 16:53:00,88.0,80.3,28.67,SE,135,6.9,6.9,78,0.00,CLR,SKC,0.01,WeatherDisplay:10.37,2013-09-10 20:53:00,
2013-09-10 16:58:00,87.8,80.1,28.67,NW,315,4.6,0.0,78,0.00,CLR,SKC,0.01,WeatherDisplay:10.37,2013-09-10 20:58:00,
2013-09-10 17:03:00,87.8,80.1,28.67,North,0,4.6,4.6,78,0.00,CLR,SKC,0.01,WeatherDisplay:10.37,2013-09-10 21:03:00,
2013-09-10 17:08:00,87.8,80.1,28.67,North,0,4.6,4.6,78,0.00,CLR,SKC,0.01,WeatherDisplay:10.37,2013-09-10 21:08:00,
2013-09-10 17:13:00,87.6,80.3,28.67,South,180,4.6,4.6,79,0.00,CLR,SKC,0.01,WeatherDisplay:10.37,2013-09-10 21:13:00,
2013-09-10 17:18:00,87.4,80.5,28.67,South,180,2.3,0.0,80,0.00,CLR,SKC,0.01,WeatherDisplay:10.37,2013-09-10 21:18:00,
2013-09-10 17:23:00,87.3,80.3,28.67,SE,135,5.8,5.8,80,0.00,CLR,SKC,0.01,WeatherDisplay:10.37,2013-09-10 21:23:00,
2013-09-10 17:28:00,87.1,80.2,28.67,South,180,4.6,4.6,80,0.00,CLR,SKC,0.01,WeatherDisplay:10.37,2013-09-10 21:28:00,
2013-09-10 17:33:00,86.9,80.0,28.67,South,180,5.8,5.8,80,0.00,CLR,SKC,0.01,WeatherDisplay:10.37,2013-09-10 21:33:00,
2013-09-10 17:38:00,86.9,80.4,28.67,SE,135,3.5,3.5,81,0.00,CLR,SKC,0.01,WeatherDisplay:10.37,2013-09-10 21:38:00,
2013-09-10 17:43:00,86.9,80.4,28.67,SE,135,3.5,3.5,81,0.00,CLR,SKC,0.01,WeatherDisplay:10.37,2013-09-10 21:43:00,
2013-09-10 17:49:00,86.5,80.0,28.67,South,180,5.8,0.0,81,0.00,CLR,SKC,0.01,WeatherDisplay:10.37,2013-09-10 21:49:00,
2013-09-10 17:54:00,86.4,80.2,28.67,South,180,0.0,0.0,82,0.00,CLR,SKC,0.01,WeatherDisplay:10.37,2013-09-10 21:54:00,
2013-09-10 17:59:00,86.2,80.0,28.66,South,180,0.0,0.0,82,0.00,CLR,SKC,0.01,WeatherDisplay:10.37,2013-09-10 21:59:00,
2013-09-10 18:04:00,86.2,80.0,28.67,South,180,3.5,3.5,82,0.00,CLR,SKC,0.01,WeatherDisplay:10.37,2013-09-10 22:04:00,
2013-09-10 18:09:00,86.0,80.2,28.67,South,180,0.0,0.0,83,0.00,CLR,SKC,0.01,WeatherDisplay:10.37,2013-09-10 22:09:00,
2013-09-10 18:14:00,85.8,80.1,28.67,South,180,0.0,0.0,83,0.00,CLR,SKC,0.01,WeatherDisplay:10.37,2013-09-10 22:14:00,
2013-09-10 18:19:00,85.8,80.1,28.67,ESE,112,2.3,2.3,83,0.00,CLR,SKC,0.01,WeatherDisplay:10.37,2013-09-10 22:19:00,
2013-09-10 18:24:00,85.6,79.9,28.67,ESE,112,2.3,0.0,83,0.00,CLR,SKC,0.01,WeatherDisplay:10.37,2013-09-10 22:24:00,
2013-09-10 18:29:00,85.6,79.9,28.67,SE,135,0.0,0.0,83,0.00,CLR,SKC,0.01,WeatherDisplay:10.37,2013-09-10 22:29:00,
2013-09-10 18:34:00,85.5,79.7,28.67,NW,315,0.0,0.0,83,0.00,CLR,SKC,0.01,WeatherDisplay:10.37,2013-09-10 22:34:00,
2013-09-10 18:39:00,85.3,79.9,28.66,East,90,0.0,0.0,84,0.00,CLR,SKC,0.01,WeatherDisplay:10.37,2013-09-10 22:39:00,
2013-09-10 18:44:00,85.1,79.7,28.67,SE,135,0.0,0.0,84,0.00,CLR,SKC,0.01,WeatherDisplay:10.37,2013-09-10 22:44:00,
2013-09-10 18:49:00,84.7,79.7,28.67,SE,135,0.0,0.0,85,0.00,CLR,SKC,0.01,WeatherDisplay:10.37,2013-09-10 22:49:00,
2013-09-10 18:54:00,84.6,79.5,28.67,South,180,0.0,0.0,85,0.00,CLR,SKC,0.01,WeatherDisplay:10.37,2013-09-10 22:54:00,
2013-09-10 18:59:00,84.2,79.2,28.67,South,180,0.0,0.0,85,0.00,CLR,SKC,0.01,WeatherDisplay:10.37,2013-09-10 22:59:00,
2013-09-10 19:04:00,84.2,79.2,28.67,SE,135,0.0,0.0,85,0.00,CLR,SKC,0.01,WeatherDisplay:10.37,2013-09-10 23:04:00,
2013-09-10 19:09:00,83.8,78.8,28.67,North,6,3.5,3.5,85,0.00,CLR,SKC,0.01,WeatherDisplay:10.37,2013-09-10 23:09:00,
2013-09-10 19:14:00,83.3,78.7,28.67,SE,135,0.0,0.0,86,0.00,CLR,SKC,0.01,WeatherDisplay:10.37,2013-09-10 23:14:00,
2013-09-10 19:19:00,83.1,78.5,28.67,South,180,0.0,0.0,86,0.00,CLR,SKC,0.01,WeatherDisplay:10.37,2013-09-10 23:19:00,
2013-09-10 19:24:00,82.8,78.1,28.67,SE,135,0.0,0.0,86,0.00,CLR,SKC,0.01,WeatherDisplay:10.37,2013-09-10 23:24:00,
2013-09-10 19:29:00,82.4,77.8,28.67,South,180,0.0,0.0,86,0.00,CLR,SKC,0.01,WeatherDisplay:10.37,2013-09-10 23:29:00,
2013-09-10 19:34:00,82.0,77.4,28.67,SE,135,0.0,0.0,86,0.00,CLR,SKC,0.01,WeatherDisplay:10.37,2013-09-10 23:34:00,
2013-09-10 19:39:00,81.9,77.3,28.67,SSE,158,0.0,0.0,86,0.00,CLR,SKC,0.01,WeatherDisplay:10.37,2013-09-10 23:39:00,
2013-09-10 19:44:00,81.5,76.9,28.67,SE,135,0.0,0.0,86,0.00,CLR,SKC,0.01,WeatherDisplay:10.37,2013-09-10 23:44:00,
2013-09-10 19:49:00,81.3,76.7,28.68,South,180,0.0,0.0,86,0.00,CLR,SKC,0.01,WeatherDisplay:10.37,2013-09-10 23:49:00,
2013-09-10 19:54:00,81.1,76.6,28.68,South,180,0.0,0.0,86,0.00,CLR,SKC,0.01,WeatherDisplay:10.37,2013-09-10 23:54:00,
2013-09-10 19:59:00,81.0,76.4,28.68,South,180,0.0,0.0,86,0.00,CLR,SKC,0.01,WeatherDisplay:10.37,2013-09-10 23:59:00,
2013-09-10 20:04:00,81.0,76.4,28.68,South,180,0.0,0.0,86,0.00,CLR,SKC,0.01,WeatherDisplay:10.37,2013-09-11 00:04:00,
2013-09-10 20:09:00,80.6,76.0,28.69,SE,135,0.0,0.0,86,0.00,CLR,SKC,0.01,WeatherDisplay:10.37,2013-09-11 00:09:00,
2013-09-10 20:14:00,80.4,75.5,28.69,SE,135,0.0,0.0,85,0.00,CLR,SKC,0.01,WeatherDisplay:10.37,2013-09-11 00:14:00,
2013-09-10 20:19:00,80.1,75.1,28.69,SE,135,0.0,0.0,85,0.00,CLR,SKC,0.01,WeatherDisplay:10.37,2013-09-11 00:19:00,
2013-09-10 20:24:00,80.1,75.1,28.69,South,180,0.0,0.0,85,0.00,CLR,SKC,0.01,WeatherDisplay:10.37,2013-09-11 00:24:00,
2013-09-10 20:29:00,79.9,75.0,28.69,SE,135,0.0,0.0,85,0.00,CLR,SKC,0.01,WeatherDisplay:10.37,2013-09-11 00:29:00,
2013-09-10 20:34:00,79.7,74.4,28.69,SE,135,0.0,0.0,84,0.00,CLR,SKC,0.01,WeatherDisplay:10.37,2013-09-11 00:34:00,
2013-09-10 20:39:00,79.5,74.3,28.70,South,180,0.0,0.0,84,0.00,CLR,SKC,0.01,WeatherDisplay:10.37,2013-09-11 00:39:00,
2013-09-10 20:44:00,79.3,73.7,28.71,SE,135,0.0,0.0,83,0.00,CLR,SKC,0.01,WeatherDisplay:10.37,2013-09-11 00:44:00,
2013-09-10 20:49:00,79.3,73.7,28.71,SE,135,0.0,0.0,83,0.00,CLR,SKC,0.01,WeatherDisplay:10.37,2013-09-11 00:49:00,
2013-09-10 20:54:00,79.2,73.5,28.71,South,180,0.0,0.0,83,0.00,CLR,SKC,0.01,WeatherDisplay:10.37,2013-09-11 00:54:00,
2013-09-10 20:59:00,79.0,73.4,28.71,South,180,0.0,0.0,83,0.00,CLR,SKC,0.01,WeatherDisplay:10.37,2013-09-11 00:59:00,
2013-09-10 21:04:00,79.0,73.4,28.71,South,180,0.0,0.0,83,0.00,CLR,SKC,0.01,WeatherDisplay:10.37,2013-09-11 01:04:00,
2013-09-10 21:09:00,78.8,72.8,28.71,SE,135,0.0,0.0,82,0.00,CLR,SKC,0.01,WeatherDisplay:10.37,2013-09-11 01:09:00,
2013-09-10 21:14:00,78.6,72.7,28.71,South,180,0.0,0.0,82,0.00,CLR,SKC,0.01,WeatherDisplay:10.37,2013-09-11 01:14:00,
2013-09-10 21:19:00,78.6,72.7,28.72,SE,135,0.0,0.0,82,0.00,CLR,SKC,0.01,WeatherDisplay:10.37,2013-09-11 01:19:00,
2013-09-10 21:24:00,78.4,72.1,28.72,South,180,0.0,0.0,81,0.00,CLR,SKC,0.01,WeatherDisplay:10.37,2013-09-11 01:24:00,
2013-09-10 21:29:00,78.3,71.6,28.72,South,180,0.0,0.0,80,0.00,CLR,SKC,0.01,WeatherDisplay:10.37,2013-09-11 01:29:00,
2013-09-10 21:34:00,78.1,71.4,28.72,SE,135,0.0,0.0,80,0.00,CLR,SKC,0.01,WeatherDisplay:10.37,2013-09-11 01:34:00,
2013-09-10 21:39:00,78.1,71.0,28.72,South,180,0.0,0.0,79,0.00,CLR,SKC,0.01,WeatherDisplay:10.37,2013-09-11 01:39:00,
2013-09-10 21:44:00,78.1,71.0,28.72,SE,135,0.0,0.0,79,0.00,CLR,SKC,0.01,WeatherDisplay:10.37,2013-09-11 01:44:00,
2013-09-10 21:49:00,78.1,70.7,28.73,South,180,0.0,0.0,78,0.00,CLR,SKC,0.01,WeatherDisplay:10.37,2013-09-11 01:49:00,
2013-09-10 21:54:00,78.1,70.7,28.73,South,180,0.0,0.0,78,0.00,CLR,SKC,0.01,WeatherDisplay:10.37,2013-09-11 01:54:00,
2013-09-10 21:59:00,77.7,69.9,28.73,South,180,0.0,0.0,77,0.00,CLR,SKC,0.01,WeatherDisplay:10.37,2013-09-11 01:59:00,
2013-09-10 22:04:00,77.7,69.9,28.73,South,180,0.0,0.0,77,0.00,CLR,SKC,0.01,WeatherDisplay:10.37,2013-09-11 02:04:00,
2013-09-10 22:09:00,77.7,69.5,28.73,South,180,0.0,0.0,76,0.00,CLR,SKC,0.01,WeatherDisplay:10.37,2013-09-11 02:09:00,
2013-09-10 22:14:00,77.5,69.4,28.73,SE,135,0.0,0.0,76,0.00,CLR,SKC,0.01,WeatherDisplay:10.37,2013-09-11 02:14:00,
2013-09-10 22:19:00,77.5,69.4,28.73,SE,135,0.0,0.0,76,0.00,CLR,SKC,0.01,WeatherDisplay:10.37,2013-09-11 02:19:00,
2013-09-10 22:24:00,77.5,69.0,28.73,SE,135,0.0,0.0,75,0.00,CLR,SKC,0.01,WeatherDisplay:10.37,2013-09-11 02:24:00,
2013-09-10 22:29:00,77.4,68.4,28.73,SE,135,0.0,0.0,74,0.00,CLR,SKC,0.01,WeatherDisplay:10.37,2013-09-11 02:29:00,
2013-09-10 22:34:00,77.2,67.9,28.73,SE,135,0.0,0.0,73,0.00,CLR,SKC,0.01,WeatherDisplay:10.37,2013-09-11 02:34:00,
2013-09-10 22:39:00,77.2,67.5,28.74,SE,135,0.0,0.0,72,0.00,CLR,SKC,0.01,WeatherDisplay:10.37,2013-09-11 02:39:00,
2013-09-10 22:44:00,77.0,66.9,28.73,SE,135,0.0,0.0,71,0.00,CLR,SKC,0.01,WeatherDisplay:10.37,2013-09-11 02:44:00,
2013-09-10 22:49:00,76.8,66.3,28.74,South,180,0.0,0.0,70,0.00,CLR,SKC,0.01,WeatherDisplay:10.37,2013-09-11 02:49:00,
2013-09-10 22:54:00,76.8,65.9,28.74,South,180,0.0,0.0,69,0.00,CLR,SKC,0.01,WeatherDisplay:10.37,2013-09-11 02:54:00,
2013-09-10 22:59:00,76.6,65.3,28.73,SE,135,0.0,0.0,68,0.00,CLR,SKC,0.01,WeatherDisplay:10.37,2013-09-11 02:59:00,
2013-09-10 23:04:00,76.6,65.3,28.73,SE,135,0.0,0.0,68,0.00,CLR,SKC,0.01,WeatherDisplay:10.37,2013-09-11 03:04:00,
2013-09-10 23:09:00,76.6,64.9,28.73,SE,135,0.0,0.0,67,0.00,CLR,SKC,0.01,WeatherDisplay:10.37,2013-09-11 03:09:00,
2013-09-10 23:14:00,76.5,63.8,28.74,SE,135,0.0,0.0,65,0.00,CLR,SKC,0.01,WeatherDisplay:10.37,2013-09-11 03:14:00,
2013-09-10 23:19:00,76.5,63.4,28.73,SE,135,0.0,0.0,64,0.00,CLR,SKC,0.01,WeatherDisplay:10.37,2013-09-11 03:19:00,
2013-09-10 23:24:00,76.3,63.2,28.74,SE,135,0.0,0.0,64,0.00,CLR,SKC,0.01,WeatherDisplay:10.37,2013-09-11 03:24:00,
2013-09-10 23:29:00,76.3,62.8,28.74,SE,135,0.0,0.0,63,0.00,CLR,SKC,0.01,WeatherDisplay:10.37,2013-09-11 03:29:00,
2013-09-10 23:34:00,76.3,61.8,28.74,SE,135,0.0,0.0,61,0.00,CLR,SKC,0.01,WeatherDisplay:10.37,2013-09-11 03:34:00,
2013-09-10 23:39:00,76.3,61.8,28.74,South,180,0.0,0.0,61,0.00,CLR,SKC,0.01,WeatherDisplay:10.37,2013-09-11 03:39:00,
2013-09-10 23:44:00,76.3,60.9,28.74,SE,135,0.0,0.0,59,0.00,CLR,SKC,0.01,WeatherDisplay:10.37,2013-09-11 03:44:00,
2013-09-10 23:49:00,76.3,60.4,28.74,South,180,0.0,0.0,58,0.00,CLR,SKC,0.01,WeatherDisplay:10.37,2013-09-11 03:49:00,
2013-09-10 23:54:00,76.3,59.4,28.73,SE,135,0.0,0.0,56,0.00,CLR,SKC,0.01,WeatherDisplay:10.37,2013-09-11 03:54:00,
2013-09-10 23:59:00,76.1,58.8,28.74,South,180,0.0,0.0,55,0.00,CLR,SKC,0.01,WeatherDisplay:10.37,2013-09-11 03:59:00,